Томаровка

Карта отелей и гостиниц, располагающихся рядом с аэропортом Томаровка :



Томаровка
Белгород
Белгородская область 50° 41' 39.7212" N, 36° 17' 30.3" E
Код аэродрома ИКАО: 
XUOP
Код аэродрома RU: 
ЬУОП
Координаты: 
N50.69437° E036.29175°
Превышение над уровнем моря : 
210
Основная полоса: 
08/26
Курс магнитный: 
081,2/261,2
Длина основной ВПП: 
600
Ширина основной ВПП: 
60
Покрытие основной ВПП: 
Нетвёрдое (грунт)
Тип: 
Аэродром
Освещение ВПП: 
Нет
Класс аэродрома: 
Статус: 
Действующий
Принадлежность: 
ДОСААФ
Сайт: 
E-mail аэродрома: 
belask@mail.ru
Страна: 
Россия
Регион: 
Белгородская область
Город: 
Белгород
Дополнительная информация: 
Оператор: Белгородский областной АСК ДОСААФ России. Нкр.=(300)м. ВС до 15 тонн.

Найти трансфер

С помощью этой формы Вы можете найти трансфер из аэропорта Томаровка в город, аэропорт или вокзал:

Карта места

Javascript is required to view this map.

Погода в аэропортах:

Авиационная погода в Закаталы

Регион: 
Погода METAR: 
UBBY 042300Z 36002KT 9999 VCTS SCT045CB BKN080 20/15 Q1017 R33/////// NOSIG RMK MT OP
Время наблюдения: 
2020-06-04T23:00:00Z
Температура C: 
20.0
Точка росы: 
15.0
Направление ветра: 
360
Скорость ветра: 
2
Метеорологическая видимость: 
6.21
Явления погоды: 
VCTS
Условия полета: 
VFR

Авиационная погода в Миккели

Регион: 
Погода METAR: 
EFMI 042250Z AUTO 02004KT 280V090 6000 -SHRA OVC005 ///// Q////
Время наблюдения: 
2020-06-04T22:50:00Z
Направление ветра: 
20
Скорость ветра: 
4
Метеорологическая видимость: 
3.73
Явления погоды: 
-SHRA
Условия полета: 
IFR

Авиационная погода в Толмачево

Регион: 
Погода METAR: 
UNNT 042300Z 26002MPS 9999 -SHRA BKN040CB 06/05 Q1006 R25/090070 R16/090070 NOSIG RMK QFE745/0993
Время наблюдения: 
2020-06-04T23:00:00Z
Температура C: 
6.0
Точка росы: 
5.0
Направление ветра: 
260
Скорость ветра: 
4
Метеорологическая видимость: 
6.21
Явления погоды: 
-SHRA
Условия полета: 
VFR
Аэропорт подробнее: 

Авиационная погода в Краснодаре

Регион: 
Погода METAR: 
URKK 042300Z 26002MPS 5000 BR NSC 14/13 Q1017 R23L/CLRD70 TEMPO 0200 FG OVC002 RMK QFE760
Время наблюдения: 
2020-06-04T23:00:00Z
Температура C: 
14.0
Точка росы: 
13.0
Направление ветра: 
260
Скорость ветра: 
4
Метеорологическая видимость: 
3.11
Явления погоды: 
BR
Условия полета: 
MVFR
Аэропорт подробнее: